sensor_id;sensor_type;location;lat;lon;timestamp;P1;durP1;ratioP1;P2;durP2;ratioP2
11809;SDS011;5962;41.566;23.734;2023-12-20T00:02:07;51.77;;;28.17;;
11809;SDS011;5962;41.566;23.734;2023-12-20T00:04:35;47.87;;;26.17;;
11809;SDS011;5962;41.566;23.734;2023-12-20T00:07:03;37.30;;;19.70;;
11809;SDS011;5962;41.566;23.734;2023-12-20T00:09:31;30.23;;;19.03;;
11809;SDS011;5962;41.566;23.734;2023-12-20T00:11:59;26.63;;;16.17;;
11809;SDS011;5962;41.566;23.734;2023-12-20T00:14:27;32.97;;;20.50;;
11809;SDS011;5962;41.566;23.734;2023-12-20T00:16:55;24.57;;;14.73;;
11809;SDS011;5962;41.566;23.734;2023-12-20T00:19:25;22.60;;;14.10;;
11809;SDS011;5962;41.566;23.734;2023-12-20T00:21:53;17.37;;;11.97;;
11809;SDS011;5962;41.566;23.734;2023-12-20T00:24:21;16.10;;;10.23;;
11809;SDS011;5962;41.566;23.734;2023-12-20T00:26:48;13.07;;;8.23;;
11809;SDS011;5962;41.566;23.734;2023-12-20T00:29:17;13.67;;;6.97;;
11809;SDS011;5962;41.566;23.734;2023-12-20T00:31:44;8.07;;;5.70;;
11809;SDS011;5962;41.566;23.734;2023-12-20T00:34:12;11.43;;;5.77;;
11809;SDS011;5962;41.566;23.734;2023-12-20T00:36:42;26.03;;;16.13;;
11809;SDS011;5962;41.566;23.734;2023-12-20T00:39:10;53.97;;;32.40;;
11809;SDS011;5962;41.566;23.734;2023-12-20T00:41:38;41.03;;;24.43;;
11809;SDS011;5962;41.566;23.734;2023-12-20T00:44:06;34.37;;;20.83;;
11809;SDS011;5962;41.566;23.734;2023-12-20T00:46:34;31.47;;;18.43;;
11809;SDS011;5962;41.566;23.734;2023-12-20T00:49:02;30.40;;;16.93;;
11809;SDS011;5962;41.566;23.734;2023-12-20T00:51:30;18.97;;;12.27;;
11809;SDS011;5962;41.566;23.734;2023-12-20T00:53:59;28.73;;;17.70;;
11809;SDS011;5962;41.566;23.734;2023-12-20T00:56:27;28.50;;;18.57;;
11809;SDS011;5962;41.566;23.734;2023-12-20T00:58:55;26.37;;;17.13;;
11809;SDS011;5962;41.566;23.734;2023-12-20T01:01:23;22.20;;;14.50;;
11809;SDS011;5962;41.566;23.734;2023-12-20T01:03:51;20.10;;;12.57;;
11809;SDS011;5962;41.566;23.734;2023-12-20T01:06:19;24.03;;;14.87;;
11809;SDS011;5962;41.566;23.734;2023-12-20T01:08:47;21.90;;;14.07;;
11809;SDS011;5962;41.566;23.734;2023-12-20T01:11:16;25.83;;;15.03;;
11809;SDS011;5962;41.566;23.734;2023-12-20T01:13:44;20.90;;;13.97;;
11809;SDS011;5962;41.566;23.734;2023-12-20T01:16:12;21.53;;;13.43;;
11809;SDS011;5962;41.566;23.734;2023-12-20T01:18:40;21.03;;;13.57;;
11809;SDS011;5962;41.566;23.734;2023-12-20T01:21:08;22.00;;;14.23;;
11809;SDS011;5962;41.566;23.734;2023-12-20T01:23:36;25.20;;;14.93;;
11809;SDS011;5962;41.566;23.734;2023-12-20T01:26:04;21.00;;;12.90;;
11809;SDS011;5962;41.566;23.734;2023-12-20T01:28:34;23.33;;;14.43;;
11809;SDS011;5962;41.566;23.734;2023-12-20T01:31:02;26.47;;;16.53;;
11809;SDS011;5962;41.566;23.734;2023-12-20T01:33:30;18.20;;;10.97;;
11809;SDS011;5962;41.566;23.734;2023-12-20T01:35:58;23.00;;;13.37;;
11809;SDS011;5962;41.566;23.734;2023-12-20T01:38:26;20.87;;;13.20;;
11809;SDS011;5962;41.566;23.734;2023-12-20T01:40:54;22.50;;;13.90;;
11809;SDS011;5962;41.566;23.734;2023-12-20T01:43:22;22.87;;;14.63;;
11809;SDS011;5962;41.566;23.734;2023-12-20T01:45:54;26.90;;;16.20;;
11809;SDS011;5962;41.566;23.734;2023-12-20T01:48:23;28.90;;;17.63;;
11809;SDS011;5962;41.566;23.734;2023-12-20T01:50:52;34.97;;;20.83;;
11809;SDS011;5962;41.566;23.734;2023-12-20T01:53:21;39.97;;;21.93;;
11809;SDS011;5962;41.566;23.734;2023-12-20T01:55:52;22.80;;;14.53;;
11809;SDS011;5962;41.566;23.734;2023-12-20T01:58:23;24.30;;;14.53;;
11809;SDS011;5962;41.566;23.734;2023-12-20T02:00:54;24.87;;;15.10;;
11809;SDS011;5962;41.566;23.734;2023-12-20T02:03:23;34.60;;;19.77;;
11809;SDS011;5962;41.566;23.734;2023-12-20T02:05:51;29.87;;;17.50;;
11809;SDS011;5962;41.566;23.734;2023-12-20T02:08:20;31.47;;;18.30;;
11809;SDS011;5962;41.566;23.734;2023-12-20T02:10:48;30.60;;;17.00;;
11809;SDS011;5962;41.566;23.734;2023-12-20T02:13:17;36.30;;;22.47;;
11809;SDS011;5962;41.566;23.734;2023-12-20T02:15:45;36.27;;;21.17;;
11809;SDS011;5962;41.566;23.734;2023-12-20T02:18:14;27.23;;;15.97;;
11809;SDS011;5962;41.566;23.734;2023-12-20T02:20:43;26.23;;;15.37;;
11809;SDS011;5962;41.566;23.734;2023-12-20T02:23:12;21.60;;;13.40;;
11809;SDS011;5962;41.566;23.734;2023-12-20T02:25:40;26.17;;;16.97;;
11809;SDS011;5962;41.566;23.734;2023-12-20T02:28:08;35.07;;;21.20;;
11809;SDS011;5962;41.566;23.734;2023-12-20T02:30:36;35.73;;;18.33;;
11809;SDS011;5962;41.566;23.734;2023-12-20T02:33:05;29.83;;;17.83;;
11809;SDS011;5962;41.566;23.734;2023-12-20T02:35:36;68.57;;;26.73;;
11809;SDS011;5962;41.566;23.734;2023-12-20T02:38:04;162.30;;;31.73;;
11809;SDS011;5962;41.566;23.734;2023-12-20T02:40:33;180.80;;;30.87;;
11809;SDS011;5962;41.566;23.734;2023-12-20T02:43:01;117.33;;;30.00;;
11809;SDS011;5962;41.566;23.734;2023-12-20T02:45:29;74.10;;;27.83;;
11809;SDS011;5962;41.566;23.734;2023-12-20T02:47:57;166.43;;;28.27;;
11809;SDS011;5962;41.566;23.734;2023-12-20T02:50:25;270.03;;;34.20;;
11809;SDS011;5962;41.566;23.734;2023-12-20T02:52:53;261.50;;;40.23;;
11809;SDS011;5962;41.566;23.734;2023-12-20T02:55:21;97.47;;;30.87;;
11809;SDS011;5962;41.566;23.734;2023-12-20T02:57:50;49.80;;;28.33;;
11809;SDS011;5962;41.566;23.734;2023-12-20T03:00:19;96.57;;;28.27;;
11809;SDS011;5962;41.566;23.734;2023-12-20T03:02:47;80.47;;;26.33;;
11809;SDS011;5962;41.566;23.734;2023-12-20T03:05:14;38.93;;;23.07;;
11809;SDS011;5962;41.566;23.734;2023-12-20T03:07:42;28.77;;;16.90;;
11809;SDS011;5962;41.566;23.734;2023-12-20T03:10:11;42.47;;;25.33;;
11809;SDS011;5962;41.566;23.734;2023-12-20T03:12:40;42.13;;;24.27;;
11809;SDS011;5962;41.566;23.734;2023-12-20T03:15:10;62.23;;;28.13;;
11809;SDS011;5962;41.566;23.734;2023-12-20T03:17:38;83.10;;;29.27;;
11809;SDS011;5962;41.566;23.734;2023-12-20T03:20:06;64.20;;;31.23;;
11809;SDS011;5962;41.566;23.734;2023-12-20T03:22:35;69.27;;;30.03;;
11809;SDS011;5962;41.566;23.734;2023-12-20T03:25:03;47.17;;;28.13;;
11809;SDS011;5962;41.566;23.734;2023-12-20T03:27:32;46.70;;;27.47;;
11809;SDS011;5962;41.566;23.734;2023-12-20T03:30:00;41.17;;;25.57;;
11809;SDS011;5962;41.566;23.734;2023-12-20T03:32:29;48.03;;;28.43;;
11809;SDS011;5962;41.566;23.734;2023-12-20T03:34:57;40.37;;;24.33;;
11809;SDS011;5962;41.566;23.734;2023-12-20T03:37:25;39.83;;;23.43;;
11809;SDS011;5962;41.566;23.734;2023-12-20T03:39:53;36.20;;;21.87;;
11809;SDS011;5962;41.566;23.734;2023-12-20T03:42:21;35.73;;;22.17;;
11809;SDS011;5962;41.566;23.734;2023-12-20T03:44:49;39.00;;;22.03;;
11809;SDS011;5962;41.566;23.734;2023-12-20T03:47:17;36.40;;;22.20;;
11809;SDS011;5962;41.566;23.734;2023-12-20T03:49:46;36.27;;;22.60;;
11809;SDS011;5962;41.566;23.734;2023-12-20T03:52:15;36.80;;;23.20;;
11809;SDS011;5962;41.566;23.734;2023-12-20T03:54:43;38.90;;;23.40;;
11809;SDS011;5962;41.566;23.734;2023-12-20T03:57:11;36.43;;;23.60;;
11809;SDS011;5962;41.566;23.734;2023-12-20T03:59:39;38.30;;;23.97;;
11809;SDS011;5962;41.566;23.734;2023-12-20T04:02:07;37.57;;;24.20;;
11809;SDS011;5962;41.566;23.734;2023-12-20T04:04:35;70.47;;;22.43;;
11809;SDS011;5962;41.566;23.734;2023-12-20T04:07:05;40.43;;;18.53;;
11809;SDS011;5962;41.566;23.734;2023-12-20T04:09:33;237.43;;;20.93;;
11809;SDS011;5962;41.566;23.734;2023-12-20T04:12:01;160.00;;;18.80;;
11809;SDS011;5962;41.566;23.734;2023-12-20T04:14:29;78.37;;;20.93;;
11809;SDS011;5962;41.566;23.734;2023-12-20T04:16:57;83.83;;;22.47;;
11809;SDS011;5962;41.566;23.734;2023-12-20T04:19:25;73.20;;;19.77;;
11809;SDS011;5962;41.566;23.734;2023-12-20T04:21:53;159.30;;;20.93;;
11809;SDS011;5962;41.566;23.734;2023-12-20T04:24:22;65.00;;;13.70;;
11809;SDS011;5962;41.566;23.734;2023-12-20T04:26:50;47.67;;;12.63;;
11809;SDS011;5962;41.566;23.734;2023-12-20T04:29:18;45.90;;;14.10;;
11809;SDS011;5962;41.566;23.734;2023-12-20T04:31:46;54.37;;;13.40;;
11809;SDS011;5962;41.566;23.734;2023-12-20T04:34:14;57.97;;;13.17;;
11809;SDS011;5962;41.566;23.734;2023-12-20T04:36:42;47.63;;;13.33;;
11809;SDS011;5962;41.566;23.734;2023-12-20T04:39:11;20.37;;;12.87;;
11809;SDS011;5962;41.566;23.734;2023-12-20T04:41:40;53.80;;;15.83;;
11809;SDS011;5962;41.566;23.734;2023-12-20T04:44:08;50.63;;;14.70;;
11809;SDS011;5962;41.566;23.734;2023-12-20T04:46:36;41.63;;;13.53;;
11809;SDS011;5962;41.566;23.734;2023-12-20T04:49:04;41.37;;;15.20;;
11809;SDS011;5962;41.566;23.734;2023-12-20T04:51:33;67.30;;;18.07;;
11809;SDS011;5962;41.566;23.734;2023-12-20T04:54:01;61.17;;;19.20;;
11809;SDS011;5962;41.566;23.734;2023-12-20T04:56:29;75.20;;;17.73;;
11809;SDS011;5962;41.566;23.734;2023-12-20T04:58:58;53.97;;;16.47;;
11809;SDS011;5962;41.566;23.734;2023-12-20T05:01:26;72.93;;;16.87;;
11809;SDS011;5962;41.566;23.734;2023-12-20T05:03:54;60.20;;;18.63;;
11809;SDS011;5962;41.566;23.734;2023-12-20T05:06:22;77.27;;;19.47;;
11809;SDS011;5962;41.566;23.734;2023-12-20T05:08:51;50.50;;;17.63;;
11809;SDS011;5962;41.566;23.734;2023-12-20T05:11:19;94.23;;;20.27;;
11809;SDS011;5962;41.566;23.734;2023-12-20T05:13:47;32.27;;;16.97;;
11809;SDS011;5962;41.566;23.734;2023-12-20T05:16:16;161.17;;;27.50;;
11809;SDS011;5962;41.566;23.734;2023-12-20T05:18:45;257.90;;;24.37;;
11809;SDS011;5962;41.566;23.734;2023-12-20T05:21:13;88.40;;;20.07;;
11809;SDS011;5962;41.566;23.734;2023-12-20T05:23:41;78.37;;;22.83;;
11809;SDS011;5962;41.566;23.734;2023-12-20T05:26:09;76.07;;;24.90;;
11809;SDS011;5962;41.566;23.734;2023-12-20T05:28:37;73.53;;;37.53;;
11809;SDS011;5962;41.566;23.734;2023-12-20T05:31:05;62.33;;;32.43;;
11809;SDS011;5962;41.566;23.734;2023-12-20T05:33:35;42.53;;;25.03;;
11809;SDS011;5962;41.566;23.734;2023-12-20T05:36:04;72.90;;;34.80;;
11809;SDS011;5962;41.566;23.734;2023-12-20T05:38:32;73.63;;;33.47;;
11809;SDS011;5962;41.566;23.734;2023-12-20T05:41:00;62.20;;;31.47;;
11809;SDS011;5962;41.566;23.734;2023-12-20T05:43:28;99.47;;;31.80;;
11809;SDS011;5962;41.566;23.734;2023-12-20T05:45:56;64.47;;;28.33;;
11809;SDS011;5962;41.566;23.734;2023-12-20T05:48:24;121.97;;;27.30;;
11809;SDS011;5962;41.566;23.734;2023-12-20T05:50:54;142.37;;;26.30;;
11809;SDS011;5962;41.566;23.734;2023-12-20T05:53:22;64.33;;;24.13;;
11809;SDS011;5962;41.566;23.734;2023-12-20T05:55:50;131.53;;;31.90;;
11809;SDS011;5962;41.566;23.734;2023-12-20T05:58:18;127.47;;;28.50;;
11809;SDS011;5962;41.566;23.734;2023-12-20T06:00:46;108.43;;;20.57;;
11809;SDS011;5962;41.566;23.734;2023-12-20T06:03:15;73.60;;;25.47;;
11809;SDS011;5962;41.566;23.734;2023-12-20T06:05:43;66.27;;;32.97;;
11809;SDS011;5962;41.566;23.734;2023-12-20T06:08:12;30.33;;;15.90;;
11809;SDS011;5962;41.566;23.734;2023-12-20T06:10:40;62.33;;;17.50;;
11809;SDS011;5962;41.566;23.734;2023-12-20T06:13:08;50.93;;;19.03;;
11809;SDS011;5962;41.566;23.734;2023-12-20T06:15:38;74.13;;;20.13;;
11809;SDS011;5962;41.566;23.734;2023-12-20T06:18:06;195.53;;;20.03;;
11809;SDS011;5962;41.566;23.734;2023-12-20T06:20:35;137.27;;;23.97;;
11809;SDS011;5962;41.566;23.734;2023-12-20T06:23:03;67.60;;;20.17;;
11809;SDS011;5962;41.566;23.734;2023-12-20T06:25:33;56.53;;;20.03;;
11809;SDS011;5962;41.566;23.734;2023-12-20T06:28:01;63.43;;;19.50;;
11809;SDS011;5962;41.566;23.734;2023-12-20T06:30:29;75.07;;;20.00;;
11809;SDS011;5962;41.566;23.734;2023-12-20T06:32:59;38.33;;;18.40;;
11809;SDS011;5962;41.566;23.734;2023-12-20T06:35:27;37.23;;;19.33;;
11809;SDS011;5962;41.566;23.734;2023-12-20T06:37:55;33.13;;;20.07;;
11809;SDS011;5962;41.566;23.734;2023-12-20T06:40:23;40.00;;;21.97;;
11809;SDS011;5962;41.566;23.734;2023-12-20T06:42:52;40.77;;;23.77;;
11809;SDS011;5962;41.566;23.734;2023-12-20T06:45:23;43.90;;;25.10;;
11809;SDS011;5962;41.566;23.734;2023-12-20T06:47:52;71.27;;;40.13;;
11809;SDS011;5962;41.566;23.734;2023-12-20T06:50:21;118.07;;;63.37;;
11809;SDS011;5962;41.566;23.734;2023-12-20T06:52:49;101.17;;;51.37;;
11809;SDS011;5962;41.566;23.734;2023-12-20T06:55:17;95.37;;;50.77;;
11809;SDS011;5962;41.566;23.734;2023-12-20T06:57:45;97.30;;;50.07;;
11809;SDS011;5962;41.566;23.734;2023-12-20T07:00:15;100.47;;;51.00;;
11809;SDS011;5962;41.566;23.734;2023-12-20T07:02:43;85.83;;;48.20;;
11809;SDS011;5962;41.566;23.734;2023-12-20T07:05:16;96.43;;;50.97;;
11809;SDS011;5962;41.566;23.734;2023-12-20T07:07:46;84.80;;;49.67;;
11809;SDS011;5962;41.566;23.734;2023-12-20T07:10:14;90.90;;;51.30;;
11809;SDS011;5962;41.566;23.734;2023-12-20T07:12:42;107.13;;;55.77;;
11809;SDS011;5962;41.566;23.734;2023-12-20T07:15:10;96.20;;;52.37;;
11809;SDS011;5962;41.566;23.734;2023-12-20T07:17:40;115.43;;;59.03;;
11809;SDS011;5962;41.566;23.734;2023-12-20T07:20:09;86.37;;;51.27;;
11809;SDS011;5962;41.566;23.734;2023-12-20T07:22:38;91.90;;;54.33;;
11809;SDS011;5962;41.566;23.734;2023-12-20T07:25:06;82.13;;;50.50;;
11809;SDS011;5962;41.566;23.734;2023-12-20T07:27:34;89.77;;;51.23;;
11809;SDS011;5962;41.566;23.734;2023-12-20T07:30:03;82.47;;;52.57;;
11809;SDS011;5962;41.566;23.734;2023-12-20T07:32:31;84.87;;;48.97;;
11809;SDS011;5962;41.566;23.734;2023-12-20T07:35:01;68.57;;;37.73;;
11809;SDS011;5962;41.566;23.734;2023-12-20T07:37:29;56.40;;;36.23;;
11809;SDS011;5962;41.566;23.734;2023-12-20T07:39:57;53.17;;;30.27;;
11809;SDS011;5962;41.566;23.734;2023-12-20T07:42:25;37.63;;;23.57;;
11809;SDS011;5962;41.566;23.734;2023-12-20T07:44:53;35.50;;;24.00;;
11809;SDS011;5962;41.566;23.734;2023-12-20T07:47:21;39.97;;;24.43;;
11809;SDS011;5962;41.566;23.734;2023-12-20T07:49:49;35.40;;;23.57;;
11809;SDS011;5962;41.566;23.734;2023-12-20T07:52:19;39.83;;;25.67;;
11809;SDS011;5962;41.566;23.734;2023-12-20T07:54:48;39.93;;;24.57;;
11809;SDS011;5962;41.566;23.734;2023-12-20T07:57:16;61.20;;;26.73;;
11809;SDS011;5962;41.566;23.734;2023-12-20T07:59:44;55.03;;;32.70;;
11809;SDS011;5962;41.566;23.734;2023-12-20T08:02:12;48.63;;;26.40;;
11809;SDS011;5962;41.566;23.734;2023-12-20T08:04:40;83.83;;;28.07;;
11809;SDS011;5962;41.566;23.734;2023-12-20T08:07:08;79.90;;;23.57;;
11809;SDS011;5962;41.566;23.734;2023-12-20T08:09:37;295.33;;;30.27;;
11809;SDS011;5962;41.566;23.734;2023-12-20T08:12:05;457.97;;;28.77;;
11809;SDS011;5962;41.566;23.734;2023-12-20T08:14:34;300.47;;;25.47;;
11809;SDS011;5962;41.566;23.734;2023-12-20T08:17:02;104.47;;;23.33;;
11809;SDS011;5962;41.566;23.734;2023-12-20T08:19:30;81.93;;;23.73;;
11809;SDS011;5962;41.566;23.734;2023-12-20T08:21:58;263.13;;;29.37;;
11809;SDS011;5962;41.566;23.734;2023-12-20T08:24:26;135.93;;;28.30;;
11809;SDS011;5962;41.566;23.734;2023-12-20T08:26:56;73.33;;;25.83;;
11809;SDS011;5962;41.566;23.734;2023-12-20T08:29:24;376.33;;;33.83;;
11809;SDS011;5962;41.566;23.734;2023-12-20T08:31:52;280.10;;;30.20;;
11809;SDS011;5962;41.566;23.734;2023-12-20T08:34:21;242.23;;;27.37;;
11809;SDS011;5962;41.566;23.734;2023-12-20T08:36:50;105.90;;;29.77;;
11809;SDS011;5962;41.566;23.734;2023-12-20T08:39:18;330.97;;;28.03;;
11809;SDS011;5962;41.566;23.734;2023-12-20T08:41:46;196.33;;;25.50;;
11809;SDS011;5962;41.566;23.734;2023-12-20T08:44:16;173.83;;;25.60;;
11809;SDS011;5962;41.566;23.734;2023-12-20T08:46:44;217.07;;;33.33;;
11809;SDS011;5962;41.566;23.734;2023-12-20T08:49:12;201.17;;;29.07;;
11809;SDS011;5962;41.566;23.734;2023-12-20T08:51:40;57.53;;;26.70;;
11809;SDS011;5962;41.566;23.734;2023-12-20T08:54:08;49.50;;;28.33;;
11809;SDS011;5962;41.566;23.734;2023-12-20T08:56:36;67.27;;;25.70;;
11809;SDS011;5962;41.566;23.734;2023-12-20T08:59:04;98.30;;;26.20;;
11809;SDS011;5962;41.566;23.734;2023-12-20T09:01:34;46.70;;;25.90;;
11809;SDS011;5962;41.566;23.734;2023-12-20T09:04:02;46.33;;;26.20;;
11809;SDS011;5962;41.566;23.734;2023-12-20T09:06:30;41.93;;;24.83;;
11809;SDS011;5962;41.566;23.734;2023-12-20T09:08:58;46.20;;;24.90;;
11809;SDS011;5962;41.566;23.734;2023-12-20T09:11:26;45.27;;;25.97;;
11809;SDS011;5962;41.566;23.734;2023-12-20T09:13:54;37.60;;;23.90;;
11809;SDS011;5962;41.566;23.734;2023-12-20T09:16:22;41.90;;;26.20;;
11809;SDS011;5962;41.566;23.734;2023-12-20T09:18:51;39.67;;;24.47;;
11809;SDS011;5962;41.566;23.734;2023-12-20T09:21:19;34.10;;;25.33;;
11809;SDS011;5962;41.566;23.734;2023-12-20T09:23:48;39.07;;;22.80;;
11809;SDS011;5962;41.566;23.734;2023-12-20T09:26:16;31.57;;;20.70;;
11809;SDS011;5962;41.566;23.734;2023-12-20T09:28:44;32.10;;;19.73;;
11809;SDS011;5962;41.566;23.734;2023-12-20T09:31:12;26.20;;;18.93;;
11809;SDS011;5962;41.566;23.734;2023-12-20T09:33:40;33.57;;;21.60;;
11809;SDS011;5962;41.566;23.734;2023-12-20T09:36:10;29.50;;;19.67;;
11809;SDS011;5962;41.566;23.734;2023-12-20T09:38:39;28.60;;;18.80;;
11809;SDS011;5962;41.566;23.734;2023-12-20T09:41:08;30.57;;;20.03;;
11809;SDS011;5962;41.566;23.734;2023-12-20T09:43:37;27.33;;;17.90;;
11809;SDS011;5962;41.566;23.734;2023-12-20T09:46:06;28.77;;;18.27;;
11809;SDS011;5962;41.566;23.734;2023-12-20T09:48:34;27.23;;;18.63;;
11809;SDS011;5962;41.566;23.734;2023-12-20T09:51:04;28.83;;;18.87;;
11809;SDS011;5962;41.566;23.734;2023-12-20T09:53:34;29.00;;;19.93;;
11809;SDS011;5962;41.566;23.734;2023-12-20T09:56:04;44.03;;;20.60;;
11809;SDS011;5962;41.566;23.734;2023-12-20T09:58:35;26.40;;;18.73;;
11809;SDS011;5962;41.566;23.734;2023-12-20T10:01:05;32.83;;;21.27;;
11809;SDS011;5962;41.566;23.734;2023-12-20T10:03:33;34.17;;;23.23;;
11809;SDS011;5962;41.566;23.734;2023-12-20T10:06:02;37.47;;;26.33;;
11809;SDS011;5962;41.566;23.734;2023-12-20T10:08:31;34.70;;;23.03;;
11809;SDS011;5962;41.566;23.734;2023-12-20T10:11:01;34.87;;;24.30;;
11809;SDS011;5962;41.566;23.734;2023-12-20T10:13:30;50.67;;;33.47;;
11809;SDS011;5962;41.566;23.734;2023-12-20T10:15:59;36.47;;;25.00;;
11809;SDS011;5962;41.566;23.734;2023-12-20T10:18:28;34.10;;;23.93;;
11809;SDS011;5962;41.566;23.734;2023-12-20T10:20:57;31.07;;;21.67;;
11809;SDS011;5962;41.566;23.734;2023-12-20T10:23:25;37.57;;;24.07;;
11809;SDS011;5962;41.566;23.734;2023-12-20T10:25:56;34.37;;;23.30;;
11809;SDS011;5962;41.566;23.734;2023-12-20T10:28:26;27.40;;;19.97;;
11809;SDS011;5962;41.566;23.734;2023-12-20T10:30:54;24.07;;;16.43;;
11809;SDS011;5962;41.566;23.734;2023-12-20T10:33:23;23.07;;;15.87;;
11809;SDS011;5962;41.566;23.734;2023-12-20T10:35:52;20.70;;;14.87;;
11809;SDS011;5962;41.566;23.734;2023-12-20T10:38:20;22.87;;;16.00;;
11809;SDS011;5962;41.566;23.734;2023-12-20T10:40:48;21.30;;;14.23;;
11809;SDS011;5962;41.566;23.734;2023-12-20T10:43:22;15.90;;;11.83;;
11809;SDS011;5962;41.566;23.734;2023-12-20T10:45:54;18.33;;;13.03;;
11809;SDS011;5962;41.566;23.734;2023-12-20T10:48:22;23.50;;;15.50;;
11809;SDS011;5962;41.566;23.734;2023-12-20T10:50:55;71.23;;;37.67;;
11809;SDS011;5962;41.566;23.734;2023-12-20T10:53:24;31.77;;;19.17;;
11809;SDS011;5962;41.566;23.734;2023-12-20T10:55:53;15.07;;;11.40;;
11809;SDS011;5962;41.566;23.734;2023-12-20T10:58:23;13.23;;;9.90;;
11809;SDS011;5962;41.566;23.734;2023-12-20T11:00:56;15.73;;;9.67;;
11809;SDS011;5962;41.566;23.734;2023-12-20T11:03:28;15.73;;;10.70;;
11809;SDS011;5962;41.566;23.734;2023-12-20T11:06:00;15.17;;;9.90;;
11809;SDS011;5962;41.566;23.734;2023-12-20T11:08:36;16.13;;;10.50;;
11809;SDS011;5962;41.566;23.734;2023-12-20T11:11:12;14.27;;;9.73;;
11809;SDS011;5962;41.566;23.734;2023-12-20T11:13:57;14.40;;;10.57;;
11809;SDS011;5962;41.566;23.734;2023-12-20T11:16:29;15.10;;;10.07;;
11809;SDS011;5962;41.566;23.734;2023-12-20T11:19:04;19.37;;;10.43;;
11809;SDS011;5962;41.566;23.734;2023-12-20T11:21:33;16.90;;;11.07;;
11809;SDS011;5962;41.566;23.734;2023-12-20T11:24:01;20.63;;;10.33;;
11809;SDS011;5962;41.566;23.734;2023-12-20T11:26:31;13.47;;;9.03;;
11809;SDS011;5962;41.566;23.734;2023-12-20T11:31:58;15.70;;;10.43;;
11809;SDS011;5962;41.566;23.734;2023-12-20T11:34:27;16.23;;;11.80;;
11809;SDS011;5962;41.566;23.734;2023-12-20T11:36:59;13.97;;;10.47;;
11809;SDS011;5962;41.566;23.734;2023-12-20T11:39:28;18.80;;;12.17;;
11809;SDS011;5962;41.566;23.734;2023-12-20T11:41:56;17.00;;;12.00;;
11809;SDS011;5962;41.566;23.734;2023-12-20T11:44:25;15.20;;;11.77;;
11809;SDS011;5962;41.566;23.734;2023-12-20T11:46:54;19.07;;;12.77;;
11809;SDS011;5962;41.566;23.734;2023-12-20T11:49:24;19.47;;;12.73;;
11809;SDS011;5962;41.566;23.734;2023-12-20T11:51:52;20.37;;;13.37;;
11809;SDS011;5962;41.566;23.734;2023-12-20T11:54:20;17.97;;;13.33;;
11809;SDS011;5962;41.566;23.734;2023-12-20T11:56:48;24.83;;;14.90;;
11809;SDS011;5962;41.566;23.734;2023-12-20T11:59:17;16.17;;;12.47;;
11809;SDS011;5962;41.566;23.734;2023-12-20T12:01:48;12.43;;;9.77;;
11809;SDS011;5962;41.566;23.734;2023-12-20T12:04:18;14.23;;;10.53;;
11809;SDS011;5962;41.566;23.734;2023-12-20T12:06:47;21.83;;;11.60;;
11809;SDS011;5962;41.566;23.734;2023-12-20T12:09:15;15.07;;;10.97;;
11809;SDS011;5962;41.566;23.734;2023-12-20T12:11:44;13.30;;;10.73;;
11809;SDS011;5962;41.566;23.734;2023-12-20T12:14:12;14.53;;;10.80;;
11809;SDS011;5962;41.566;23.734;2023-12-20T12:16:43;15.87;;;11.57;;
11809;SDS011;5962;41.566;23.734;2023-12-20T12:19:19;14.57;;;10.33;;
11809;SDS011;5962;41.566;23.734;2023-12-20T12:21:49;14.70;;;10.53;;
11809;SDS011;5962;41.566;23.734;2023-12-20T12:24:19;12.83;;;9.53;;
11809;SDS011;5962;41.566;23.734;2023-12-20T12:26:51;13.03;;;9.33;;
11809;SDS011;5962;41.566;23.734;2023-12-20T12:29:19;12.90;;;8.83;;
11809;SDS011;5962;41.566;23.734;2023-12-20T12:31:47;9.47;;;7.53;;
11809;SDS011;5962;41.566;23.734;2023-12-20T12:34:15;11.20;;;8.10;;
11809;SDS011;5962;41.566;23.734;2023-12-20T12:36:44;10.90;;;7.37;;
11809;SDS011;5962;41.566;23.734;2023-12-20T12:39:15;11.87;;;8.10;;
11809;SDS011;5962;41.566;23.734;2023-12-20T12:41:43;10.93;;;8.53;;
11809;SDS011;5962;41.566;23.734;2023-12-20T12:44:11;10.40;;;8.47;;
11809;SDS011;5962;41.566;23.734;2023-12-20T12:46:39;14.20;;;9.43;;
11809;SDS011;5962;41.566;23.734;2023-12-20T12:49:08;14.83;;;9.47;;
11809;SDS011;5962;41.566;23.734;2023-12-20T12:51:36;14.73;;;9.33;;
11809;SDS011;5962;41.566;23.734;2023-12-20T12:54:04;15.33;;;8.17;;
11809;SDS011;5962;41.566;23.734;2023-12-20T12:56:33;12.87;;;9.47;;
11809;SDS011;5962;41.566;23.734;2023-12-20T12:59:01;13.93;;;10.17;;
11809;SDS011;5962;41.566;23.734;2023-12-20T13:01:29;20.83;;;10.23;;
11809;SDS011;5962;41.566;23.734;2023-12-20T13:03:57;13.60;;;9.90;;
11809;SDS011;5962;41.566;23.734;2023-12-20T13:06:27;20.17;;;11.83;;
11809;SDS011;5962;41.566;23.734;2023-12-20T13:08:55;18.20;;;12.17;;
11809;SDS011;5962;41.566;23.734;2023-12-20T13:11:23;28.50;;;15.03;;
11809;SDS011;5962;41.566;23.734;2023-12-20T13:13:53;31.53;;;17.50;;
11809;SDS011;5962;41.566;23.734;2023-12-20T13:16:21;25.03;;;17.00;;
11809;SDS011;5962;41.566;23.734;2023-12-20T13:18:49;32.50;;;19.20;;
11809;SDS011;5962;41.566;23.734;2023-12-20T13:21:17;25.97;;;18.10;;
11809;SDS011;5962;41.566;23.734;2023-12-20T13:23:45;27.43;;;18.47;;
11809;SDS011;5962;41.566;23.734;2023-12-20T13:26:13;25.40;;;16.93;;
11809;SDS011;5962;41.566;23.734;2023-12-20T13:28:41;28.90;;;16.20;;
11809;SDS011;5962;41.566;23.734;2023-12-20T13:31:11;23.77;;;15.97;;
11809;SDS011;5962;41.566;23.734;2023-12-20T13:33:39;25.87;;;16.70;;
11809;SDS011;5962;41.566;23.734;2023-12-20T13:36:07;28.20;;;16.27;;
11809;SDS011;5962;41.566;23.734;2023-12-20T13:38:36;24.80;;;15.50;;
11809;SDS011;5962;41.566;23.734;2023-12-20T13:41:04;27.03;;;16.63;;
11809;SDS011;5962;41.566;23.734;2023-12-20T13:43:32;28.87;;;19.00;;
11809;SDS011;5962;41.566;23.734;2023-12-20T13:46:02;31.00;;;23.03;;
11809;SDS011;5962;41.566;23.734;2023-12-20T13:48:31;33.23;;;19.27;;
11809;SDS011;5962;41.566;23.734;2023-12-20T13:50:59;36.90;;;26.80;;
11809;SDS011;5962;41.566;23.734;2023-12-20T13:53:29;63.37;;;31.37;;
11809;SDS011;5962;41.566;23.734;2023-12-20T13:55:57;33.40;;;18.37;;
11809;SDS011;5962;41.566;23.734;2023-12-20T13:58:26;27.40;;;17.63;;
11809;SDS011;5962;41.566;23.734;2023-12-20T14:00:54;25.37;;;13.37;;
11809;SDS011;5962;41.566;23.734;2023-12-20T14:03:22;16.10;;;11.17;;
11809;SDS011;5962;41.566;23.734;2023-12-20T14:05:51;19.73;;;13.33;;
11809;SDS011;5962;41.566;23.734;2023-12-20T14:08:19;18.97;;;11.20;;
11809;SDS011;5962;41.566;23.734;2023-12-20T14:10:47;19.47;;;11.57;;
11809;SDS011;5962;41.566;23.734;2023-12-20T14:13:15;16.17;;;10.77;;
11809;SDS011;5962;41.566;23.734;2023-12-20T14:15:43;27.83;;;18.40;;
11809;SDS011;5962;41.566;23.734;2023-12-20T14:18:13;42.77;;;25.47;;
11809;SDS011;5962;41.566;23.734;2023-12-20T14:20:41;47.67;;;26.40;;
11809;SDS011;5962;41.566;23.734;2023-12-20T14:23:12;44.60;;;23.37;;
11809;SDS011;5962;41.566;23.734;2023-12-20T14:25:41;36.90;;;22.90;;
11809;SDS011;5962;41.566;23.734;2023-12-20T14:28:11;36.87;;;22.60;;
11809;SDS011;5962;41.566;23.734;2023-12-20T14:30:40;32.53;;;20.40;;
11809;SDS011;5962;41.566;23.734;2023-12-20T14:33:08;32.30;;;19.63;;